Time;durP1;ratioP1;P1;durP2;ratioP2;P2;SDS_P1;SDS_P2;PMS_P1;PMS_P2;Temp;Humidity;BMP_temperature;BMP_pressure;BME280_temperature;BME280_humidity;BME280_pressure;Samples;Min_cycle;Max_cycle;Signal;HPM_P1;HPM_P2
2022/05/13 00:02:22;;;;;;;6.07;3.70;;;18.00;96.70;;;;;;5058731;28;20817;-84
2022/05/13 00:04:51;;;;;;;5.13;2.92;;;17.80;96.70;;;;;;5062259;28;20051;-84
2022/05/13 00:07:19;;;;;;;4.35;3.72;;;17.80;96.70;;;;;;5053925;28;20048;-84
2022/05/13 00:09:56;;;;;;;7.00;3.13;;;17.70;96.70;;;;;;5067850;28;20057;-84
2022/05/13 00:12:25;;;;;;;5.47;3.05;;;17.60;96.70;;;;;;5061572;28;20109;-84
2022/05/13 00:14:53;;;;;;;8.50;3.05;;;17.70;96.70;;;;;;5062145;28;20464;-84
2022/05/13 00:17:23;;;;;;;6.00;3.45;;;17.60;96.70;;;;;;5064694;28;20068;-82
2022/05/13 00:19:52;;;;;;;5.32;3.30;;;17.60;96.70;;;;;;5062043;28;20048;-84
2022/05/13 00:22:20;;;;;;;4.53;2.92;;;17.60;96.70;;;;;;5068592;28;20047;-84
2022/05/13 00:24:53;;;;;;;4.40;3.20;;;17.50;96.70;;;;;;5053652;28;20131;-84
2022/05/13 00:27:21;;;;;;;6.68;3.35;;;17.50;96.70;;;;;;5049173;28;20059;-83
2022/05/13 00:29:49;;;;;;;8.23;4.03;;;17.50;96.70;;;;;;5062115;28;20040;-84
2022/05/13 00:32:18;;;;;;;4.18;2.95;;;17.50;96.70;;;;;;5044733;28;20059;-84
2022/05/13 00:34:48;;;;;;;5.30;3.20;;;17.60;96.70;;;;;;5064979;28;20037;-84
2022/05/13 00:37:18;;;;;;;6.90;3.47;;;17.60;96.70;;;;;;5067871;28;20048;-84
2022/05/13 00:39:52;;;;;;;4.20;2.70;;;17.50;96.70;;;;;;5064180;28;20047;-84
2022/05/13 00:42:22;;;;;;;4.63;2.97;;;17.50;96.70;;;;;;5067611;28;20049;-84
2022/05/13 00:44:50;;;;;;;4.97;3.08;;;17.30;96.70;;;;;;5052156;28;20049;-84
2022/05/13 00:47:19;;;;;;;3.20;2.90;;;17.40;96.70;;;;;;5067164;28;20494;-84
2022/05/13 00:49:48;;;;;;;6.25;2.92;;;17.50;96.70;;;;;;5047197;28;20048;-83
2022/05/13 00:52:16;;;;;;;4.80;3.03;;;17.40;96.70;;;;;;5065956;28;20326;-84
2022/05/13 00:54:44;;;;;;;4.00;2.60;;;17.40;96.70;;;;;;5045261;28;20059;-85
2022/05/13 00:57:12;;;;;;;4.50;3.10;;;17.40;96.70;;;;;;5056989;28;20087;-84
2022/05/13 00:59:43;;;;;;;4.60;3.05;;;17.30;96.70;;;;;;5066908;28;20127;-84
2022/05/13 01:02:12;;;;;;;4.15;2.92;;;17.30;96.70;;;;;;5063664;28;20040;-83
2022/05/13 01:04:40;;;;;;;7.03;3.42;;;17.30;96.70;;;;;;5061001;28;20040;-84
2022/05/13 01:07:14;;;;;;;6.30;2.83;;;17.30;96.70;;;;;;5063430;28;20051;-84
2022/05/13 01:09:45;;;;;;;5.97;2.90;;;17.30;96.70;;;;;;5064968;28;20125;-84
2022/05/13 01:12:17;;;;;;;4.85;3.00;;;17.30;96.70;;;;;;5067044;28;20605;-84
2022/05/13 01:14:50;;;;;;;5.00;2.80;;;17.20;96.70;;;;;;5050986;28;20048;-84
2022/05/13 01:20:16;;;;;;;4.63;2.60;;;17.00;96.70;;;;;;5060504;28;20056;-84
2022/05/13 01:22:48;;;;;;;3.58;2.53;;;17.00;96.70;;;;;;5060726;28;20052;-82
2022/05/13 01:25:19;;;;;;;4.82;2.53;;;17.00;96.70;;;;;;5051824;28;20055;-83
2022/05/13 01:27:48;;;;;;;4.00;2.80;;;17.00;96.70;;;;;;5062853;28;20287;-83
2022/05/13 01:30:20;;;;;;;6.70;3.03;;;17.00;96.70;;;;;;5064831;28;20139;-83
2022/05/13 01:32:49;;;;;;;3.33;2.10;;;17.00;96.70;;;;;;5043957;28;20049;-83
2022/05/13 01:35:17;;;;;;;5.75;3.17;;;17.00;96.70;;;;;;5063425;28;20051;-81
2022/05/13 01:37:48;;;;;;;5.85;2.60;;;17.00;96.70;;;;;;5060174;28;20528;-83
2022/05/13 01:40:17;;;;;;;4.95;2.28;;;16.80;96.70;;;;;;5057531;28;20072;-83
2022/05/13 01:42:45;;;;;;;4.55;2.30;;;16.80;96.70;;;;;;5059867;28;20037;-83
2022/05/13 01:45:14;;;;;;;4.70;2.45;;;17.00;96.70;;;;;;5054226;28;20571;-83
2022/05/13 01:47:42;;;;;;;4.00;2.55;;;16.90;96.70;;;;;;5054659;28;20053;-84
2022/05/13 01:50:11;;;;;;;3.35;2.40;;;16.90;96.70;;;;;;5057460;28;20052;-84
2022/05/13 01:52:40;;;;;;;4.18;2.15;;;16.80;96.70;;;;;;5061580;28;20040;-84
2022/05/13 01:55:10;;;;;;;3.35;2.35;;;16.80;96.70;;;;;;5061496;28;20131;-83
2022/05/13 01:57:38;;;;;;;4.15;2.45;;;16.90;96.70;;;;;;5060419;28;20037;-83
2022/05/13 02:00:07;;;;;;;6.45;2.25;;;16.90;96.70;;;;;;5042875;28;20485;-85
2022/05/13 02:05:26;;;;;;;4.32;1.95;;;16.80;96.70;;;;;;5061083;28;20048;-83
2022/05/13 02:07:54;;;;;;;3.08;1.95;;;16.70;96.70;;;;;;5048193;28;20048;-82
2022/05/13 02:10:24;;;;;;;3.35;2.28;;;16.60;96.70;;;;;;5059046;28;20135;-83
2022/05/13 02:12:52;;;;;;;5.72;2.42;;;16.60;96.70;;;;;;5067157;28;20064;-81
2022/05/13 02:15:20;;;;;;;5.45;2.90;;;16.50;96.70;;;;;;5048088;28;20226;-83
2022/05/13 02:17:48;;;;;;;3.88;2.10;;;16.50;96.70;;;;;;5057823;28;20048;-83
2022/05/13 02:20:16;;;;;;;5.65;2.42;;;16.70;96.70;;;;;;5048444;28;20517;-83
2022/05/13 02:22:45;;;;;;;3.03;2.03;;;16.70;96.70;;;;;;5068520;28;20043;-83
2022/05/13 02:25:13;;;;;;;3.38;2.00;;;16.60;96.70;;;;;;5053595;28;20037;-83
2022/05/13 02:27:43;;;;;;;5.85;2.05;;;16.60;96.70;;;;;;5066117;28;20104;-83
2022/05/13 02:30:12;;;;;;;4.60;2.40;;;16.70;96.70;;;;;;5065315;28;20044;-83
2022/05/13 02:32:40;;;;;;;4.43;1.75;;;16.70;96.70;;;;;;5067065;28;20041;-83
2022/05/13 02:35:09;;;;;;;4.32;1.92;;;16.50;96.70;;;;;;5056994;28;20498;-83
2022/05/13 02:37:37;;;;;;;2.28;2.00;;;16.30;96.70;;;;;;5060172;28;20047;-83
2022/05/13 02:40:07;;;;;;;3.67;2.22;;;16.30;96.70;;;;;;5047728;28;20053;-83
2022/05/13 02:42:35;;;;;;;3.88;2.00;;;16.30;96.70;;;;;;5060285;28;20505;-83
2022/05/13 02:45:09;;;;;;;2.83;2.10;;;16.30;96.70;;;;;;5064788;28;20044;-83
2022/05/13 02:47:37;;;;;;;4.00;2.35;;;16.50;96.70;;;;;;5063237;28;20051;-83
2022/05/13 02:50:21;;;;;;;3.38;1.88;;;16.30;96.70;;;;;;5058329;28;20059;-83
2022/05/13 02:52:50;;;;;;;3.92;2.40;;;16.30;96.70;;;;;;5059836;28;20072;-83
2022/05/13 02:55:19;;;;;;;4.20;2.20;;;16.30;96.70;;;;;;5066235;28;20477;-83
2022/05/13 02:57:47;;;;;;;3.67;2.03;;;16.30;96.70;;;;;;5062733;28;20045;-83
2022/05/13 03:00:17;;;;;;;3.28;2.08;;;16.30;96.70;;;;;;5065299;28;20410;-83
2022/05/13 03:02:45;;;;;;;5.07;1.83;;;16.20;96.70;;;;;;5049069;28;20564;-83
2022/05/13 03:05:13;;;;;;;5.30;2.42;;;16.10;96.70;;;;;;5067131;28;20056;-82
2022/05/13 03:07:41;;;;;;;4.43;2.33;;;16.10;96.70;;;;;;5056096;28;20068;-83
2022/05/13 03:10:11;;;;;;;3.10;2.38;;;16.00;96.70;;;;;;5058302;28;20160;-83
2022/05/13 03:12:40;;;;;;;5.68;2.22;;;16.00;96.70;;;;;;5065785;28;20048;-84
2022/05/13 03:15:10;;;;;;;4.65;2.35;;;16.00;96.70;;;;;;5065903;28;20063;-83
2022/05/13 03:17:41;;;;;;;3.83;2.03;;;16.00;96.70;;;;;;5036553;28;20056;-83
2022/05/13 03:20:14;;;;;;;4.70;2.30;;;16.10;96.70;;;;;;5053272;28;20048;-83
2022/05/13 03:22:42;;;;;;;3.58;2.33;;;16.00;96.70;;;;;;5059751;28;20083;-83
2022/05/13 03:25:11;;;;;;;4.50;2.60;;;15.90;96.70;;;;;;5057119;28;20103;-83
2022/05/13 03:27:39;;;;;;;3.45;2.03;;;16.00;96.70;;;;;;5047157;28;20045;-83
2022/05/13 03:30:10;;;;;;;3.63;1.92;;;16.00;96.70;;;;;;5066729;28;20136;-83
2022/05/13 03:32:41;;;;;;;4.82;2.22;;;15.90;96.70;;;;;;5058847;28;20048;-83
2022/05/13 03:35:11;;;;;;;4.20;2.13;;;15.80;96.70;;;;;;5049573;28;20545;-83
2022/05/13 03:37:39;;;;;;;5.30;1.95;;;15.90;96.70;;;;;;5057252;28;20045;-83
2022/05/13 03:40:10;;;;;;;4.10;2.25;;;15.90;96.70;;;;;;5049963;28;20048;-82
2022/05/13 03:42:40;;;;;;;3.38;2.00;;;15.80;96.70;;;;;;5037269;28;20052;-83
2022/05/13 03:45:10;;;;;;;4.20;2.05;;;15.70;96.70;;;;;;5067843;28;20052;-83
2022/05/13 03:47:40;;;;;;;3.50;2.10;;;15.60;96.70;;;;;;5069885;28;20048;-82
2022/05/13 03:50:09;;;;;;;2.50;1.90;;;15.70;96.70;;;;;;5059330;28;20128;-83
2022/05/13 03:52:38;;;;;;;4.75;2.42;;;15.70;96.70;;;;;;5053162;28;20501;-82
2022/05/13 03:55:07;;;;;;;3.90;2.20;;;15.70;96.70;;;;;;5061020;28;20120;-83
2022/05/13 03:57:35;;;;;;;4.38;1.83;;;15.70;96.70;;;;;;5065900;28;20140;-82
2022/05/13 04:00:06;;;;;;;3.28;1.83;;;15.60;96.70;;;;;;5062048;28;20068;-83
2022/05/13 04:02:35;;;;;;;6.30;1.83;;;15.70;96.70;;;;;;5043994;28;20068;-83
2022/05/13 04:10:48;;;;;;;6.90;2.15;;;15.50;96.70;;;;;;5068376;28;20048;-82
2022/05/13 04:16:05;;;;;;;5.30;2.33;;;15.60;96.70;;;;;;5068538;28;20383;-83
2022/05/13 04:18:36;;;;;;;5.47;2.42;;;15.70;96.70;;;;;;5060931;28;20075;-83
2022/05/13 04:21:10;;;;;;;5.18;2.10;;;15.80;96.70;;;;;;5040529;28;20049;-83
2022/05/13 04:23:40;;;;;;;6.53;2.30;;;16.00;96.70;;;;;;5064647;28;20044;-83
2022/05/13 04:26:12;;;;;;;4.47;2.13;;;16.00;96.70;;;;;;5065704;28;20047;-83
2022/05/13 04:28:41;;;;;;;4.78;2.47;;;15.90;96.70;;;;;;5068816;28;20050;-83
2022/05/13 04:31:09;;;;;;;4.22;2.38;;;15.70;96.70;;;;;;5060036;28;20135;-83
2022/05/13 04:33:38;;;;;;;4.55;2.53;;;15.70;96.70;;;;;;5068282;28;20033;-83
2022/05/13 04:36:08;;;;;;;3.30;2.20;;;15.70;96.70;;;;;;5069110;28;20059;-82
2022/05/13 04:38:37;;;;;;;5.15;2.00;;;15.80;96.70;;;;;;5050472;28;20048;-82
2022/05/13 04:43:54;;;;;;;4.40;2.58;;;15.90;96.70;;;;;;5067740;28;20102;-82
2022/05/13 04:46:22;;;;;;;6.28;2.05;;;15.90;96.70;;;;;;5067221;28;20045;-81
2022/05/13 04:48:52;;;;;;;2.55;1.90;;;15.80;96.70;;;;;;5061816;28;20726;-82
2022/05/13 04:51:22;;;;;;;4.88;2.08;;;15.80;96.70;;;;;;5066293;28;20068;-83
2022/05/13 04:53:54;;;;;;;4.75;2.25;;;15.80;96.70;;;;;;5059547;28;20068;-82
2022/05/13 04:56:23;;;;;;;5.53;2.30;;;15.70;96.70;;;;;;5068736;28;20571;-82
2022/05/13 04:58:52;;;;;;;7.18;2.22;;;15.80;96.70;;;;;;5061167;28;20139;-82
2022/05/13 05:01:21;;;;;;;4.25;2.03;;;15.80;96.70;;;;;;5067625;28;20045;-82
2022/05/13 05:03:50;;;;;;;4.95;3.53;;;15.80;96.70;;;;;;5066509;28;20079;-82
2022/05/13 05:06:19;;;;;;;10.95;3.92;;;15.70;96.70;;;;;;5050606;28;20438;-83
2022/05/13 05:08:50;;;;;;;5.95;2.80;;;15.80;96.70;;;;;;5065173;28;20045;-83
2022/05/13 05:11:18;;;;;;;8.02;3.45;;;15.90;96.70;;;;;;5060890;28;20045;-83
2022/05/13 05:13:48;;;;;;;5.78;2.85;;;15.90;96.70;;;;;;5057418;28;20139;-83
2022/05/13 05:16:19;;;;;;;4.45;3.20;;;16.00;96.70;;;;;;5058345;28;20044;-83
2022/05/13 05:18:47;;;;;;;7.78;3.40;;;16.10;96.70;;;;;;5042947;28;20059;-83
2022/05/13 05:21:15;;;;;;;7.97;4.30;;;16.10;96.70;;;;;;5066281;28;20556;-83
2022/05/13 05:23:45;;;;;;;6.68;3.85;;;16.10;96.70;;;;;;5068005;28;20045;-83
2022/05/13 05:26:14;;;;;;;6.05;4.00;;;16.10;96.70;;;;;;5064106;28;20041;-82
2022/05/13 05:28:43;;;;;;;6.32;4.00;;;16.10;96.70;;;;;;5048455;28;20052;-84
2022/05/13 05:31:12;;;;;;;12.07;5.70;;;16.10;96.70;;;;;;5067980;28;20051;-84
2022/05/13 05:33:42;;;;;;;12.00;6.50;;;16.10;96.70;;;;;;5066621;28;20123;-83
2022/05/13 05:36:10;;;;;;;11.75;6.78;;;16.10;96.70;;;;;;5055601;28;20041;-84
2022/05/13 05:38:40;;;;;;;13.77;8.38;;;16.20;96.70;;;;;;5065960;28;20048;-84
2022/05/13 05:41:08;;;;;;;14.38;7.78;;;16.20;96.70;;;;;;5062351;28;20123;-83
2022/05/13 05:43:38;;;;;;;12.48;7.55;;;16.40;96.70;;;;;;5051258;28;20072;-84
2022/05/13 05:46:06;;;;;;;14.35;6.32;;;16.50;96.70;;;;;;5062318;28;20051;-84
2022/05/13 05:48:34;;;;;;;11.63;6.32;;;16.40;96.70;;;;;;5067047;28;20151;-83
2022/05/13 05:51:02;;;;;;;12.93;6.93;;;16.30;96.70;;;;;;5054975;28;20041;-84
2022/05/13 05:59:26;;;;;;;11.25;5.70;;;16.40;96.70;;;;;;5064797;28;20051;-83
2022/05/13 06:01:54;;;;;;;10.50;4.72;;;16.30;96.70;;;;;;5065542;28;20052;-84
2022/05/13 06:04:22;;;;;;;14.13;5.00;;;16.20;96.70;;;;;;5046908;28;20068;-83
2022/05/13 06:06:51;;;;;;;10.00;5.45;;;16.30;96.70;;;;;;5065243;28;20051;-83
2022/05/13 06:09:19;;;;;;;8.65;4.82;;;16.50;96.70;;;;;;5066033;28;20037;-83
2022/05/13 06:11:47;;;;;;;9.98;5.05;;;16.70;96.70;;;;;;5058418;28;20068;-84
2022/05/13 06:14:16;;;;;;;11.00;4.65;;;16.60;96.70;;;;;;5066405;28;20473;-83
2022/05/13 06:16:46;;;;;;;7.05;4.15;;;16.70;96.70;;;;;;5046498;28;20455;-84
2022/05/13 06:19:15;;;;;;;10.55;4.78;;;16.80;96.70;;;;;;5058586;28;20074;-81
2022/05/13 06:21:43;;;;;;;9.00;4.18;;;16.80;96.70;;;;;;5064402;28;20052;-81
2022/05/13 06:24:12;;;;;;;8.55;4.70;;;16.80;96.70;;;;;;5065253;28;20043;-82
2022/05/13 06:26:40;;;;;;;7.85;4.30;;;16.80;96.70;;;;;;5064169;28;20058;-82
2022/05/13 06:29:08;;;;;;;7.15;4.40;;;16.90;96.70;;;;;;5053928;28;20033;-81
2022/05/13 06:31:37;;;;;;;7.45;4.10;;;16.90;96.70;;;;;;5059969;28;20110;-81
2022/05/13 06:34:07;;;;;;;8.55;4.18;;;17.00;96.70;;;;;;5058852;28;20040;-81
2022/05/13 06:36:35;;;;;;;5.93;3.20;;;17.10;96.70;;;;;;5064766;28;20068;-81
2022/05/13 06:39:03;;;;;;;8.65;3.88;;;17.10;96.70;;;;;;5054124;28;20028;-83
2022/05/13 06:41:32;;;;;;;6.13;4.25;;;17.20;96.70;;;;;;5066820;28;20097;-83
2022/05/13 06:44:02;;;;;;;9.25;4.53;;;17.30;96.70;;;;;;5060567;28;20068;-83
2022/05/13 06:46:30;;;;;;;10.55;5.00;;;17.40;96.70;;;;;;5066167;28;20052;-82
2022/05/13 06:48:58;;;;;;;13.60;6.00;;;17.50;96.70;;;;;;5061788;28;20503;-82
2022/05/13 06:51:28;;;;;;;8.55;5.03;;;17.50;96.70;;;;;;5060554;28;20155;-82
2022/05/13 06:53:56;;;;;;;9.35;4.75;;;17.60;96.70;;;;;;5062212;28;20053;-82
2022/05/13 06:56:24;;;;;;;13.02;5.32;;;17.70;96.70;;;;;;5065334;28;20044;-82
2022/05/13 06:58:52;;;;;;;7.30;4.75;;;17.60;96.70;;;;;;5049434;28;20053;-79
2022/05/13 07:01:21;;;;;;;7.75;4.45;;;17.70;96.70;;;;;;5060854;28;20068;-78
2022/05/13 07:03:50;;;;;;;7.47;4.80;;;17.80;96.70;;;;;;5061381;28;20050;-81
2022/05/13 07:06:19;;;;;;;7.15;4.63;;;17.80;96.70;;;;;;5058377;28;20110;-82
2022/05/13 07:08:50;;;;;;;9.27;4.90;;;17.90;96.70;;;;;;5061659;28;20048;-80
2022/05/13 07:11:18;;;;;;;9.10;5.50;;;17.80;96.70;;;;;;5056225;28;20151;-79
2022/05/13 07:13:46;;;;;;;9.65;5.72;;;17.90;96.70;;;;;;5054993;28;20072;-80
2022/05/13 07:16:15;;;;;;;8.98;5.85;;;18.00;96.70;;;;;;5060262;28;20068;-79
2022/05/13 07:18:46;;;;;;;11.07;5.78;;;18.10;96.70;;;;;;5059921;28;20146;-80
2022/05/13 07:21:15;;;;;;;11.93;6.20;;;18.20;96.70;;;;;;5055094;28;20045;-78
2022/05/13 07:23:43;;;;;;;11.15;6.22;;;18.30;96.70;;;;;;5052938;28;20059;-79
2022/05/13 07:26:13;;;;;;;11.98;6.90;;;18.30;96.70;;;;;;5048486;28;20127;-78
2022/05/13 07:28:41;;;;;;;11.63;6.68;;;18.40;96.70;;;;;;5053904;28;20045;-80
2022/05/13 07:31:10;;;;;;;10.73;6.65;;;18.50;96.70;;;;;;5055712;28;20048;-79
2022/05/13 07:33:38;;;;;;;13.15;6.70;;;18.40;96.70;;;;;;5041157;28;20098;-78
2022/05/13 07:36:07;;;;;;;16.08;7.25;;;18.40;96.70;;;;;;5054325;28;20055;-78
2022/05/13 07:38:35;;;;;;;10.35;6.50;;;18.50;96.70;;;;;;5052504;28;20060;-80
2022/05/13 07:41:18;;;;;;;12.82;7.05;;;18.40;96.70;;;;;;5052074;28;20060;-79
2022/05/13 07:43:48;;;;;;;20.20;8.50;;;18.50;96.70;;;;;;5051990;28;20147;-81
2022/05/13 07:46:17;;;;;;;18.00;8.40;;;18.60;96.70;;;;;;5037036;28;20061;-79
2022/05/13 07:48:45;;;;;;;18.42;8.52;;;18.60;96.70;;;;;;5058118;28;20044;-82
2022/05/13 07:51:13;;;;;;;13.88;7.25;;;18.70;96.70;;;;;;5043681;28;20053;-79
2022/05/13 07:53:41;;;;;;;12.02;7.63;;;18.80;96.70;;;;;;5060689;28;20428;-80
2022/05/13 07:56:10;;;;;;;11.98;7.10;;;18.90;96.70;;;;;;5060422;28;20037;-80
2022/05/13 07:58:38;;;;;;;14.55;7.75;;;19.00;96.70;;;;;;5057761;28;20490;-82
2022/05/13 08:01:08;;;;;;;13.40;7.88;;;19.10;96.70;;;;;;5059214;28;20210;-84
2022/05/13 08:03:36;;;;;;;12.90;6.78;;;19.10;96.70;;;;;;5067230;28;20036;-83
2022/05/13 08:06:06;;;;;;;12.50;6.82;;;19.20;96.70;;;;;;5065320;28;20552;-82
2022/05/13 08:08:36;;;;;;;12.52;6.95;;;19.30;96.70;;;;;;5047366;28;20553;-88
2022/05/13 08:11:07;;;;;;;15.05;7.57;;;19.30;96.70;;;;;;5058563;28;20052;-85
2022/05/13 08:13:35;;;;;;;13.45;7.03;;;19.40;96.70;;;;;;5065976;28;20112;-86
2022/05/13 08:16:04;;;;;;;13.02;6.55;;;19.40;96.70;;;;;;5052969;28;20049;-84
2022/05/13 08:18:34;;;;;;;9.82;5.10;;;19.40;96.70;;;;;;5060242;28;20138;-85
2022/05/13 08:21:03;;;;;;;13.30;6.25;;;19.40;96.70;;;;;;5042611;28;20570;-87
2022/05/13 08:23:34;;;;;;;11.82;6.75;;;19.50;96.70;;;;;;5064740;28;20049;-87
2022/05/13 08:26:06;;;;;;;8.52;5.80;;;19.50;96.70;;;;;;5062563;28;20047;-87
2022/05/13 08:28:34;;;;;;;11.90;5.93;;;19.60;96.70;;;;;;5049814;28;20052;-86
2022/05/13 08:31:02;;;;;;;10.02;6.03;;;19.70;96.70;;;;;;5065443;28;20155;-86
2022/05/13 08:33:30;;;;;;;10.93;5.85;;;19.80;96.70;;;;;;5069917;28;20131;-85
2022/05/13 08:36:03;;;;;;;11.98;5.55;;;19.90;96.70;;;;;;5063528;28;20049;-85
2022/05/13 08:38:35;;;;;;;8.93;4.97;;;20.00;96.70;;;;;;5048978;28;20049;-87
2022/05/13 08:41:14;;;;;;;7.82;4.68;;;20.10;96.70;;;;;;5065397;28;20059;-87
2022/05/13 08:43:46;;;;;;;9.00;5.40;;;20.30;96.70;;;;;;5065929;28;20045;-86
2022/05/13 08:46:22;;;;;;;7.10;4.07;;;20.30;96.70;;;;;;5070310;28;20053;-86
2022/05/13 08:48:54;;;;;;;8.82;3.15;;;20.30;96.70;;;;;;5066335;28;20048;-85
2022/05/13 08:51:36;;;;;;;9.30;3.42;;;20.40;96.70;;;;;;5069605;28;20063;-86
2022/05/13 08:54:11;;;;;;;7.90;3.30;;;20.50;96.70;;;;;;5060786;28;20076;-87
2022/05/13 08:56:39;;;;;;;9.35;3.40;;;20.60;96.70;;;;;;5070115;28;20044;-86
2022/05/13 08:59:12;;;;;;;6.03;3.13;;;20.70;96.70;;;;;;5063581;28;20043;-86
2022/05/13 09:01:46;;;;;;;5.30;2.80;;;20.60;96.70;;;;;;5067369;28;20045;-86
2022/05/13 09:04:24;;;;;;;5.60;2.97;;;20.70;96.70;;;;;;5063040;28;20421;-86
2022/05/13 09:06:57;;;;;;;8.13;3.13;;;20.80;96.70;;;;;;5063885;28;20051;-86
2022/05/13 09:09:26;;;;;;;5.68;3.03;;;20.90;96.70;;;;;;5051953;28;20045;-86
2022/05/13 09:12:00;;;;;;;12.73;3.10;;;21.10;96.70;;;;;;5067546;28;20448;-85
2022/05/13 09:14:40;;;;;;;3.75;2.60;;;21.20;96.70;;;;;;5061671;28;20048;-84
2022/05/13 09:17:21;;;;;;;4.80;2.88;;;21.30;96.70;;;;;;5062999;28;20076;-84
2022/05/13 09:19:57;;;;;;;6.13;2.53;;;21.40;96.70;;;;;;5067138;28;20076;-83
2022/05/13 09:22:35;;;;;;;7.47;2.28;;;21.50;96.70;;;;;;5057905;28;20045;-84
2022/05/13 09:25:04;;;;;;;7.47;3.08;;;21.60;96.70;;;;;;5057687;28;20059;-83
2022/05/13 09:27:51;;;;;;;5.90;2.28;;;21.60;96.70;;;;;;5058051;28;20051;-84
2022/05/13 09:30:22;;;;;;;5.75;2.33;;;21.70;96.70;;;;;;5057132;28;20044;-84
2022/05/13 09:32:51;;;;;;;5.72;2.47;;;21.90;96.70;;;;;;5066390;28;20048;-83
2022/05/13 09:35:34;;;;;;;7.10;2.00;;;22.00;96.70;;;;;;5065154;28;20148;-83
2022/05/13 09:38:16;;;;;;;9.45;2.53;;;22.10;96.70;;;;;;5052304;28;20036;-84
2022/05/13 09:40:57;;;;;;;4.35;1.85;;;22.20;96.70;;;;;;5063713;28;20403;-84
2022/05/13 09:43:36;;;;;;;7.10;1.98;;;22.20;96.70;;;;;;5048391;28;20097;-84
2022/05/13 09:46:07;;;;;;;6.53;2.40;;;22.30;96.70;;;;;;5039164;28;20057;-85
2022/05/13 09:48:38;;;;;;;6.05;2.17;;;22.40;96.70;;;;;;5064190;28;20146;-86
2022/05/13 09:51:25;;;;;;;6.20;2.53;;;22.40;96.70;;;;;;5066538;28;20848;-85
2022/05/13 09:54:03;;;;;;;3.88;2.15;;;22.60;96.70;;;;;;5068729;28;20158;-84
2022/05/13 09:56:42;;;;;;;4.82;1.90;;;22.60;96.70;;;;;;5057759;28;20048;-84
2022/05/13 09:59:22;;;;;;;5.05;1.80;;;22.60;96.70;;;;;;5066569;28;21218;-84
2022/05/13 10:01:51;;;;;;;4.10;2.03;;;22.80;96.70;;;;;;5040646;28;20057;-87
2022/05/13 10:04:23;;;;;;;5.35;1.73;;;22.80;96.70;;;;;;5058235;28;20139;-83
2022/05/13 10:07:04;;;;;;;7.88;2.33;;;22.90;96.70;;;;;;5056735;28;20521;-80
2022/05/13 10:15:27;;;;;;;5.68;2.30;;;23.00;96.70;;;;;;5055895;28;20587;-82
2022/05/13 10:18:03;;;;;;;7.90;2.42;;;23.00;96.70;;;;;;5061000;28;20052;-85
2022/05/13 10:20:35;;;;;;;4.43;1.90;;;23.10;96.70;;;;;;5045398;28;20048;-86
2022/05/13 10:23:10;;;;;;;5.50;1.80;;;23.30;96.70;;;;;;5064396;28;20494;-88
2022/05/13 10:25:53;;;;;;;6.55;1.77;;;23.40;96.70;;;;;;5064809;28;20048;-88
2022/05/13 10:28:26;;;;;;;8.52;2.47;;;23.50;96.70;;;;;;5064920;28;20059;-86
2022/05/13 10:31:00;;;;;;;5.53;1.70;;;23.60;96.70;;;;;;5059138;28;20494;-88
2022/05/13 10:33:33;;;;;;;3.45;1.60;;;23.60;96.70;;;;;;5067403;28;20094;-88
2022/05/13 10:36:07;;;;;;;4.88;1.83;;;23.70;96.70;;;;;;5042342;28;20161;-86
2022/05/13 10:38:41;;;;;;;5.38;1.65;;;23.80;96.70;;;;;;5066095;28;20077;-86
2022/05/13 10:41:23;;;;;;;6.80;1.48;;;23.90;96.70;;;;;;5059648;28;20072;-84
2022/05/13 10:43:56;;;;;;;6.05;1.90;;;24.00;96.70;;;;;;5063656;28;20765;-85
2022/05/13 10:46:26;;;;;;;4.15;1.40;;;24.10;96.70;;;;;;5055769;28;20569;-85
2022/05/13 10:49:14;;;;;;;5.22;1.48;;;24.10;96.70;;;;;;5052201;28;20040;-85
2022/05/13 10:51:52;;;;;;;4.93;1.65;;;24.10;96.70;;;;;;5056859;28;20128;-85
2022/05/13 10:54:43;;;;;;;5.32;1.40;;;24.20;96.70;;;;;;5075320;28;20064;-86
2022/05/13 10:57:32;;;;;;;3.88;1.25;;;24.30;96.70;;;;;;5066394;28;20059;-85
2022/05/13 11:00:12;;;;;;;4.95;1.58;;;24.40;96.70;;;;;;5060328;28;20043;-83
2022/05/13 11:03:00;;;;;;;5.38;1.38;;;24.40;96.70;;;;;;5060845;28;20228;-84
2022/05/13 11:05:39;;;;;;;4.20;1.70;;;24.50;96.70;;;;;;5065798;28;20048;-84
2022/05/13 11:08:16;;;;;;;4.18;1.60;;;24.50;96.70;;;;;;5058119;28;20044;-84
2022/05/13 11:10:54;;;;;;;3.22;1.13;;;24.40;96.70;;;;;;5066324;28;20048;-84
2022/05/13 11:13:43;;;;;;;4.07;1.30;;;24.40;96.70;;;;;;5058425;28;20052;-83
2022/05/13 11:16:21;;;;;;;5.75;1.60;;;24.50;96.70;;;;;;5052947;28;20049;-84
2022/05/13 11:19:00;;;;;;;4.35;1.23;;;24.60;96.70;;;;;;5057772;28;20053;-84
2022/05/13 11:21:38;;;;;;;5.85;1.83;;;24.60;96.70;;;;;;5057561;28;20044;-83
2022/05/13 11:27:10;;;;;;;4.50;1.38;;;24.60;96.70;;;;;;5054650;28;20201;-84
2022/05/13 11:29:46;;;;;;;2.78;1.20;;;24.80;96.70;;;;;;5049752;28;20682;-85
2022/05/13 11:32:24;;;;;;;4.80;1.58;;;24.80;96.70;;;;;;5060975;28;20083;-87
2022/05/13 11:35:08;;;;;;;4.57;1.10;;;24.90;96.70;;;;;;5062016;28;20139;-85
2022/05/13 11:37:39;;;;;;;3.45;1.15;;;25.00;96.70;;;;;;5050220;28;20045;-87
2022/05/13 11:40:26;;;;;;;2.47;1.17;;;25.10;96.70;;;;;;5057155;28;20442;-85
2022/05/13 11:43:20;;;;;;;4.47;1.23;;;25.20;95.50;;;;;;5059829;28;20582;-86
2022/05/13 11:46:17;;;;;;;2.90;1.27;;;25.00;94.90;;;;;;5062127;28;20059;-86
2022/05/13 11:48:48;;;;;;;3.47;1.15;;;25.00;95.70;;;;;;5060554;28;20147;-86
2022/05/13 11:51:22;;;;;;;6.65;1.40;;;24.90;96.70;;;;;;5061173;28;20040;-87
2022/05/13 11:53:52;;;;;;;4.90;1.25;;;24.90;95.80;;;;;;5056425;28;20063;-87
2022/05/13 11:56:33;;;;;;;4.05;1.25;;;25.00;94.90;;;;;;5041484;28;20340;-86
2022/05/13 11:59:03;;;;;;;3.60;1.33;;;25.00;95.70;;;;;;5062545;28;20119;-88
2022/05/13 12:01:53;;;;;;;6.93;1.40;;;25.00;96.70;;;;;;5060417;28;20040;-86
2022/05/13 12:04:34;;;;;;;3.38;1.25;;;25.00;96.70;;;;;;5063536;28;20045;-82
2022/05/13 12:07:26;;;;;;;3.50;1.30;;;25.10;96.70;;;;;;5064196;28;20501;-83
2022/05/13 12:09:57;;;;;;;5.13;1.23;;;25.20;96.70;;;;;;5048734;28;20049;-84
2022/05/13 12:12:49;;;;;;;2.83;1.20;;;25.30;96.30;;;;;;5059759;28;20132;-83
2022/05/13 12:15:42;;;;;;;4.28;1.55;;;25.20;95.20;;;;;;5060259;28;20047;-84
2022/05/13 12:18:26;;;;;;;5.28;1.55;;;25.30;96.70;;;;;;5059253;28;20052;-84
2022/05/13 12:21:03;;;;;;;3.88;1.58;;;25.50;96.70;;;;;;5046203;28;20071;-84
2022/05/13 12:23:49;;;;;;;7.45;1.20;;;25.40;96.10;;;;;;5046084;28;20045;-84
2022/05/13 12:26:22;;;;;;;4.03;1.05;;;25.30;96.60;;;;;;5052819;28;20067;-84
2022/05/13 12:29:15;;;;;;;4.57;1.52;;;25.20;96.10;;;;;;5063586;28;20041;-85
2022/05/13 12:32:09;;;;;;;4.45;1.35;;;25.40;96.70;;;;;;5056539;28;20057;-84
2022/05/13 12:38:01;;;;;;;4.95;1.15;;;25.40;96.50;;;;;;5061022;28;20045;-84
2022/05/13 12:40:34;;;;;;;4.33;1.40;;;25.50;96.10;;;;;;5055421;28;20087;-84
2022/05/13 12:43:14;;;;;;;4.45;1.20;;;25.50;95.90;;;;;;5066842;28;20053;-83
2022/05/13 12:46:13;;;;;;;5.78;1.42;;;25.40;95.10;;;;;;5062587;28;20063;-84
2022/05/13 12:49:02;;;;;;;3.95;1.33;;;25.40;94.40;;;;;;5056838;28;20045;-84
2022/05/13 12:51:47;;;;;;;4.68;1.40;;;25.50;93.60;;;;;;5058752;28;20143;-84
2022/05/13 12:54:24;;;;;;;3.95;1.10;;;25.50;94.70;;;;;;5057525;28;20020;-85
2022/05/13 12:56:58;;;;;;;2.88;1.27;;;25.60;94.20;;;;;;5061509;28;20040;-85
2022/05/13 12:59:51;;;;;;;7.15;1.20;;;25.70;93.10;;;;;;5061756;28;20133;-85
2022/05/13 13:02:23;;;;;;;3.40;1.15;;;25.70;93.60;;;;;;5061296;28;20045;-85
2022/05/13 13:04:56;;;;;;;2.78;1.10;;;25.80;94.30;;;;;;5058917;28;20044;-85
2022/05/13 13:07:29;;;;;;;7.22;1.45;;;25.80;94.70;;;;;;5060690;28;20040;-85
2022/05/13 13:09:58;;;;;;;6.07;1.42;;;25.90;92.30;;;;;;5054170;28;20135;-85
2022/05/13 13:12:31;;;;;;;2.05;0.93;;;25.80;92.40;;;;;;5067853;28;20044;-85
2022/05/13 13:15:23;;;;;;;5.93;1.50;;;25.70;92.30;;;;;;5061237;28;20052;-85
2022/05/13 13:17:55;;;;;;;5.60;1.48;;;26.00;93.50;;;;;;5058791;28;20045;-84
2022/05/13 13:20:27;;;;;;;7.72;1.20;;;26.30;92.80;;;;;;5058858;28;20040;-82
2022/05/13 13:23:00;;;;;;;3.42;1.10;;;26.30;93.60;;;;;;5059659;28;20059;-84
2022/05/13 13:25:30;;;;;;;5.90;1.40;;;26.10;91.60;;;;;;5068104;28;20052;-84
2022/05/13 13:28:00;;;;;;;3.53;1.20;;;26.10;91.70;;;;;;5066368;28;20078;-83
2022/05/13 13:30:30;;;;;;;5.88;1.58;;;26.20;92.20;;;;;;5051588;28;20498;-83
2022/05/13 13:33:07;;;;;;;5.68;1.50;;;26.30;92.70;;;;;;5041791;28;20580;-83
2022/05/13 13:35:38;;;;;;;4.85;1.33;;;26.40;91.60;;;;;;5066706;28;20048;-82
2022/05/13 13:38:11;;;;;;;4.50;1.55;;;26.50;92.40;;;;;;5054320;28;20153;-83
2022/05/13 13:40:41;;;;;;;3.88;1.08;;;26.60;90.90;;;;;;5045449;28;20045;-83
2022/05/13 13:43:15;;;;;;;4.55;1.30;;;26.50;91.50;;;;;;5046683;28;20473;-83
2022/05/13 13:45:47;;;;;;;5.55;1.15;;;26.50;91.70;;;;;;5066716;28;20053;-83
2022/05/13 13:48:31;;;;;;;6.45;1.20;;;26.60;90.90;;;;;;5045863;28;20045;-83